Jody Ann — WDJ5593 — position and weather

sailwx.info

Track history (hours):
 
Tides and Currents Weather Stations Pressure Air Temp Water Temp Dewpoint Dewpoint Depression Visibility Wind Speed Wind Dir Waves Ship Positions

Jody Ann

Owner: Dean Equipment Inc., Harvey, LA. More information available from US FCC via Universal Licensing System and Coast Guard Vessel Documentation Center.

Last reported at 2018-Jun-10 02:26 UTC. Time now 2018-Jun-17 22:07 UTC.
Position N 29°34' W 090°57'.

Length 17 m; draft 2.3 m.

Type: Towing. MMSI: 367789370.

Date/timePositionNaut miles runAvg speedWind from/ knotsBaromVisibWave heightAir tempDewpointWater temp
2018-Jun-10 02:26N 29°34' W 090°57'3 5.5
2018-Jun-10 01:56N 29°33' W 090°54'2 5.2
2018-Jun-10 01:28N 29°32' W 090°51'2 5.3
2018-Jun-10 01:00N 29°32' W 090°48'2 5.0
2018-Jun-10 00:30N 29°32' W 090°46'2 4.6
2018-Jun-10 00:00N 29°34' W 090°44'2 4.6
2018-Jun-09 23:30N 29°36' W 090°43'2 3.9
2018-Jun-09 23:00N 29°36' W 090°40'3 5.2
2018-Jun-09 22:30N 29°35' W 090°38'2 3.6
2018-Jun-09 22:00N 29°35' W 090°36'2 3.9
2018-Jun-09 21:30N 29°34' W 090°34'  
2018-Jun-07 10:43N 29°34' W 090°31'2 7.4
2018-Jun-07 10:31N 29°34' W 090°33'3 5.6
2018-Jun-07 10:00N 29°35' W 090°36'4 7.2
2018-Jun-07 09:31N 29°36' W 090°40'0 0.4
2018-Jun-07 09:01N 29°36' W 090°40'0 0.0
2018-Jun-07 08:31N 29°36' W 090°40'0 0.0
2018-Jun-07 08:01N 29°36' W 090°40'0 0.0
2018-Jun-07 07:30N 29°36' W 090°40'0 0.0
2018-Jun-07 07:00N 29°36' W 090°40'0 0.0
2018-Jun-07 06:30N 29°36' W 090°40'0 0.0
2018-Jun-07 06:00N 29°36' W 090°40'0 0.0
2018-Jun-07 05:31N 29°36' W 090°40'0 0.0
2018-Jun-07 05:01N 29°36' W 090°40'0 0.0
2018-Jun-07 04:30N 29°36' W 090°40'0 0.0
2018-Jun-07 04:01N 29°36' W 090°40'0 0.0
2018-Jun-07 03:30N 29°36' W 090°40'0 0.0
2018-Jun-07 03:01N 29°36' W 090°40'0 0.0
2018-Jun-07 02:30N 29°36' W 090°40'0 0.0
2018-Jun-07 02:01N 29°36' W 090°40'0 0.0
2018-Jun-07 01:31N 29°36' W 090°40'0 0.0
2018-Jun-07 01:00N 29°36' W 090°40'0 0.0
2018-Jun-07 00:31N 29°36' W 090°40'2 4.0
2018-Jun-07 00:01N 29°36' W 090°43'3 5.4
2018-Jun-06 23:30N 29°34' W 090°43'3 5.7
2018-Jun-06 23:00N 29°32' W 090°46'  
2018-Jun-02 14:51N 29°32' W 090°52'2 6.5
2018-Jun-02 14:30N 29°32' W 090°50'3 6.4
2018-Jun-02 14:00N 29°32' W 090°46'3 5.4
2018-Jun-02 13:30N 29°34' W 090°44'2 4.9
2018-Jun-02 13:00N 29°36' W 090°43'3 5.7
2018-Jun-02 12:30N 29°36' W 090°39'3 6.5
2018-Jun-02 12:00N 29°35' W 090°36'  
Track history (hours):
 
Tides and Currents Weather Stations Pressure Air Temp Water Temp Dewpoint Dewpoint Depression Visibility Wind Speed Wind Dir Waves Ship Positions

Jody Ann

Owner: Dean Equipment Inc., Harvey, LA. More information available from US FCC via Universal Licensing System and Coast Guard Vessel Documentation Center.

Last reported at 2018-Jun-10 02:26 UTC. Time now 2018-Jun-17 22:07 UTC.
Position N 29°34' W 090°57'.

Length 17 m; draft 2.3 m.

Type: Towing. MMSI: 367789370.

Date/timePositionNaut miles runAvg speedWind from/ knotsBaromVisibWave heightAir tempDewpointWater temp
2018-Jun-10 02:26N 29°34' W 090°57'3 5.5
2018-Jun-10 01:56N 29°33' W 090°54'2 5.2
2018-Jun-10 01:28N 29°32' W 090°51'2 5.3
2018-Jun-10 01:00N 29°32' W 090°48'2 5.0
2018-Jun-10 00:30N 29°32' W 090°46'2 4.6
2018-Jun-10 00:00N 29°34' W 090°44'2 4.6
2018-Jun-09 23:30N 29°36' W 090°43'2 3.9
2018-Jun-09 23:00N 29°36' W 090°40'3 5.2
2018-Jun-09 22:30N 29°35' W 090°38'2 3.6
2018-Jun-09 22:00N 29°35' W 090°36'2 3.9
2018-Jun-09 21:30N 29°34' W 090°34'  
2018-Jun-07 10:43N 29°34' W 090°31'2 7.4
2018-Jun-07 10:31N 29°34' W 090°33'3 5.6
2018-Jun-07 10:00N 29°35' W 090°36'4 7.2
2018-Jun-07 09:31N 29°36' W 090°40'0 0.4
2018-Jun-07 09:01N 29°36' W 090°40'0 0.0
2018-Jun-07 08:31N 29°36' W 090°40'0 0.0
2018-Jun-07 08:01N 29°36' W 090°40'0 0.0
2018-Jun-07 07:30N 29°36' W 090°40'0 0.0
2018-Jun-07 07:00N 29°36' W 090°40'0 0.0
2018-Jun-07 06:30N 29°36' W 090°40'0 0.0
2018-Jun-07 06:00N 29°36' W 090°40'0 0.0
2018-Jun-07 05:31N 29°36' W 090°40'0 0.0
2018-Jun-07 05:01N 29°36' W 090°40'0 0.0
2018-Jun-07 04:30N 29°36' W 090°40'0 0.0
2018-Jun-07 04:01N 29°36' W 090°40'0 0.0
2018-Jun-07 03:30N 29°36' W 090°40'0 0.0
2018-Jun-07 03:01N 29°36' W 090°40'0 0.0
2018-Jun-07 02:30N 29°36' W 090°40'0 0.0
2018-Jun-07 02:01N 29°36' W 090°40'0 0.0
2018-Jun-07 01:31N 29°36' W 090°40'0 0.0
2018-Jun-07 01:00N 29°36' W 090°40'0 0.0
2018-Jun-07 00:31N 29°36' W 090°40'2 4.0
2018-Jun-07 00:01N 29°36' W 090°43'3 5.4
2018-Jun-06 23:30N 29°34' W 090°43'3 5.7
2018-Jun-06 23:00N 29°32' W 090°46'  
2018-Jun-02 14:51N 29°32' W 090°52'2 6.5
2018-Jun-02 14:30N 29°32' W 090°50'3 6.4
2018-Jun-02 14:00N 29°32' W 090°46'3 5.4
2018-Jun-02 13:30N 29°34' W 090°44'2 4.9
2018-Jun-02 13:00N 29°36' W 090°43'3 5.7
2018-Jun-02 12:30N 29°36' W 090°39'3 6.5
2018-Jun-02 12:00N 29°35' W 090°36'  

Dump ship's entire track history